Time;durP1;ratioP1;P1;durP2;ratioP2;P2;SDS_P1;SDS_P2;PMS_P1;PMS_P2;Temp;Humidity;BMP_temperature;BMP_pressure;BME280_temperature;BME280_humidity;BME280_pressure;Samples;Min_cycle;Max_cycle;Signal;HPM_P1;HPM_P2
2022/10/08 00:01:39;;;;;;;;;;;;;;;11.67;98.06;99600.41;8243193;28;19926;-76
2022/10/08 00:05:41;;;;;;;;;;;;;;;11.70;98.59;99600.38;8239429;28;19961;-77
2022/10/08 00:09:42;;;;;;;;;;;;;;;11.73;99.02;99607.31;8243563;28;20252;-76
2022/10/08 00:13:44;;;;;;;;;;;;;;;11.74;99.27;99609.91;8222685;28;19948;-76
2022/10/08 00:17:46;;;;;;;;;;;;;;;11.73;99.13;99604.72;8225433;28;19984;-77
2022/10/08 00:21:52;;;;;;;;;;;;;;;11.69;99.31;99603.00;8244195;28;19937;-77
2022/10/08 00:25:53;;;;;;;;;;;;;;;11.67;98.72;99607.31;8247696;28;20596;-77
2022/10/08 00:29:54;;;;;;;;;;;;;;;11.63;98.76;99610.81;8228048;28;20343;-76
2022/10/08 00:33:56;;;;;;;;;;;;;;;11.56;98.63;99616.94;8225085;28;20069;-76
2022/10/08 00:37:58;;;;;;;;;;;;;;;11.48;98.00;99614.34;8210904;28;19926;-77
2022/10/08 00:42:01;;;;;;;;;;;;;;;11.43;98.23;99613.50;8242729;28;20407;-77
2022/10/08 00:46:03;;;;;;;;;;;;;;;11.38;97.84;99604.88;8212212;28;19930;-76
2022/10/08 00:50:13;;;;;;;;;;;;;;;11.31;97.27;99611.84;8242445;28;19938;-77
2022/10/08 00:54:16;;;;;;;;;;;;;;;11.24;97.19;99607.53;8245171;28;19984;-77
2022/10/08 00:58:21;;;;;;;;;;;;;;;11.17;96.97;99604.09;8248078;28;19925;-77
2022/10/08 01:02:23;;;;;;;;;;;;;;;11.09;96.46;99603.25;8218574;28;19926;-77
2022/10/08 01:06:59;;;;;;;;;;;;;;;10.97;96.10;99600.69;8238782;28;19917;-77
2022/10/08 01:11:49;;;;;;;;;;;;;;;10.87;96.21;99599.84;8238062;28;19922;-77
2022/10/08 01:16:29;;;;;;;;;;;;;;;10.79;96.34;99603.34;8237099;28;19945;-76
2022/10/08 01:21:04;;;;;;;;;;;;;;;10.74;96.48;99599.84;8235941;28;20004;-76
2022/10/08 01:25:39;;;;;;;;;;;;;;;10.68;96.60;99595.56;8239752;28;20290;-77
2022/10/08 01:30:13;;;;;;;;;;;;;;;10.63;96.58;99594.69;8212296;28;19918;-76
2022/10/08 01:34:46;;;;;;;;;;;;;;;10.58;96.88;99593.81;8227806;28;20414;-77
2022/10/08 01:39:17;;;;;;;;;;;;;;;10.49;96.56;99588.66;8232938;28;20020;-77
2022/10/08 01:43:59;;;;;;;;;;;;;;;10.44;96.78;99590.41;8215031;28;19926;-77
2022/10/08 01:48:32;;;;;;;;;;;;;;;10.38;96.71;99590.38;8214570;28;19921;-76
2022/10/08 01:53:03;;;;;;;;;;;;;;;10.32;96.85;99585.19;8233911;28;20239;-77
2022/10/08 01:57:33;;;;;;;;;;;;;;;10.24;96.48;99590.41;8234895;28;19921;-76
2022/10/08 02:02:05;;;;;;;;;;;;;;;10.19;96.60;99586.88;8219712;28;19934;-77
2022/10/08 05:13:13;;;;;;;;;;;;;;;7.48;97.52;99700.72;8243908;28;19980;-77
2022/10/08 05:17:15;;;;;;;;;;;;;;;7.45;97.13;99694.66;8226260;28;20502;-77
2022/10/08 05:21:18;;;;;;;;;;;;;;;7.40;97.25;99699.78;8230778;28;19934;-78
2022/10/08 05:25:19;;;;;;;;;;;;;;;7.38;97.05;99700.59;8216250;28;19961;-77
2022/10/08 05:29:20;;;;;;;;;;;;;;;7.29;96.87;99701.31;8212622;28;19926;-78
2022/10/08 05:33:22;;;;;;;;;;;;;;;7.20;96.53;99707.25;8248892;28;20395;-78
2022/10/08 05:37:23;;;;;;;;;;;;;;;7.21;96.91;99710.69;8248532;28;19922;-78
2022/10/08 05:41:26;;;;;;;;;;;;;;;7.15;96.78;99708.88;8226358;28;19929;-78
2022/10/08 05:45:29;;;;;;;;;;;;;;;7.15;96.91;99708.88;8226444;28;19954;-78
2022/10/08 05:49:30;;;;;;;;;;;;;;;7.11;96.79;99716.56;8206590;28;19926;-78
2022/10/08 05:53:36;;;;;;;;;;;;;;;7.09;96.78;99719.13;8225197;28;19929;-78
2022/10/08 05:57:37;;;;;;;;;;;;;;;7.08;96.92;99734.59;8242933;28;19997;-78
2022/10/08 06:01:38;;;;;;;;;;;;;;;7.05;96.74;99734.56;8211296;28;20289;-77
2022/10/08 06:05:40;;;;;;;;;;;;;;;7.05;96.96;99734.56;8225728;28;19926;-77
2022/10/08 06:09:43;;;;;;;;;;;;;;;7.08;97.22;99734.59;8231443;28;19926;-77
2022/10/08 06:13:45;;;;;;;;;;;;;;;7.07;96.99;99736.31;8226759;28;20360;-78
2022/10/08 06:17:46;;;;;;;;;;;;;;;7.07;97.14;99738.88;8222835;28;19926;-77
2022/10/08 06:21:47;;;;;;;;;;;;;;;7.09;97.13;99744.94;8224663;28;19930;-76
2022/10/08 06:25:49;;;;;;;;;;;;;;;7.10;97.19;99754.44;8231721;28;19926;-76
2022/10/08 06:29:50;;;;;;;;;;;;;;;7.11;97.01;99752.72;8206917;28;20559;-76
2022/10/08 06:33:55;;;;;;;;;;;;;;;7.13;97.50;99756.19;8233037;28;20319;-75
2022/10/08 06:37:57;;;;;;;;;;;;;;;7.17;97.80;99764.00;8217521;28;19945;-75
2022/10/08 06:41:58;;;;;;;;;;;;;;;7.24;98.34;99765.84;8218138;28;19980;-76
2022/10/08 06:46:06;;;;;;;;;;;;;;;7.31;98.20;99778.84;8214825;28;19926;-76
2022/10/08 06:50:07;;;;;;;;;;;;;;;7.33;98.21;99778.00;8230244;28;19987;-75
2022/10/08 06:54:09;;;;;;;;;;;;;;;7.39;97.79;99777.25;8216321;28;19934;-76
2022/10/08 06:58:10;;;;;;;;;;;;;;;7.41;97.69;99788.47;8203730;28;19926;-76
2022/10/08 07:02:12;;;;;;;;;;;;;;;7.46;97.55;99792.84;8212134;28;20526;-76
2022/10/08 07:06:13;;;;;;;;;;;;;;;7.47;96.99;99798.88;8236850;28;20429;-75
2022/10/08 07:10:14;;;;;;;;;;;;;;;7.64;97.36;99804.28;8213406;28;19925;-76
2022/10/08 07:14:18;;;;;;;;;;;;;;;7.91;97.15;99808.97;8216134;28;19926;-76
2022/10/08 07:18:20;;;;;;;;;;;;;;;8.17;97.36;99812.75;8217311;28;19954;-76
2022/10/08 07:22:21;;;;;;;;;;;;;;;8.59;96.76;99806.31;8249537;28;19929;-77
2022/10/08 07:26:24;;;;;;;;;;;;;;;9.05;96.03;99810.22;8238584;28;19925;-76
2022/10/08 07:30:25;;;;;;;;;;;;;;;9.56;95.54;99812.34;8231902;28;19925;-77
2022/10/08 07:34:26;;;;;;;;;;;;;;;10.11;93.20;99814.34;8202701;28;19994;-77
2022/10/08 07:38:27;;;;;;;;;;;;;;;10.57;91.18;99816.25;8224523;28;20352;-77
2022/10/08 07:42:30;;;;;;;;;;;;;;;10.98;89.25;99823.28;8211770;28;20767;-77
2022/10/08 07:46:32;;;;;;;;;;;;;;;11.48;87.37;99824.97;8214512;28;19929;-77
2022/10/08 07:50:34;;;;;;;;;;;;;;;12.02;86.48;99826.63;8237120;28;20623;-77
2022/10/08 07:54:35;;;;;;;;;;;;;;;12.58;84.89;99828.13;8237009;28;19976;-78
2022/10/08 07:58:37;;;;;;;;;;;;;;;13.30;83.05;99827.66;8244169;28;20339;-78
2022/10/08 08:02:38;;;;;;;;;;;;;;;13.77;81.77;99826.34;8222216;28;19926;-78
2022/10/08 08:06:43;;;;;;;;;;;;;;;13.86;80.75;99834.97;8224325;28;19926;-78
2022/10/08 08:10:45;;;;;;;;;;;;;;;13.75;80.46;99830.72;8242881;28;20445;-77
2022/10/08 08:14:46;;;;;;;;;;;;;;;13.60;80.75;99837.81;8223661;28;19993;-77
2022/10/08 08:18:48;;;;;;;;;;;;;;;13.49;81.82;99842.28;8264129;28;19941;-76
2022/10/08 08:22:50;;;;;;;;;;;;;;;13.34;82.94;99854.59;8233655;28;19926;-77
2022/10/08 08:26:51;;;;;;;;;;;;;;;13.45;84.13;99857.94;8237075;28;19925;-76
2022/10/08 08:31:06;;;;;;;;;;;;;;;13.68;84.38;99860.38;8232892;28;19974;-77
2022/10/08 08:35:08;;;;;;;;;;;;;;;13.85;84.23;99863.69;8243588;28;19977;-77
2022/10/08 08:39:13;;;;;;;;;;;;;;;14.07;84.07;99856.47;8240249;28;20697;-76
2022/10/08 08:43:14;;;;;;;;;;;;;;;14.32;82.16;99865.75;8236353;28;20609;-76
2022/10/08 08:47:19;;;;;;;;;;;;;;;14.67;80.48;99867.94;8238611;28;20275;-76
2022/10/08 08:51:20;;;;;;;;;;;;;;;14.86;76.00;99863.34;8247094;28;19980;-75
2022/10/08 08:55:31;;;;;;;;;;;;;;;14.96;75.02;99864.94;8248484;28;20355;-77
2022/10/08 08:59:36;;;;;;;;;;;;;;;15.14;75.16;99866.41;8244230;28;19957;-76
2022/10/08 09:04:10;;;;;;;;;;;;;;;15.61;74.33;99864.78;8238329;28;19953;-76
2022/10/08 09:08:19;;;;;;;;;;;;;;;16.02;72.93;99864.06;8216517;28;19989;-76
2022/10/08 09:12:35;;;;;;;;;;;;;;;16.41;70.77;99869.41;8240162;28;19926;-76
2022/10/08 09:16:37;;;;;;;;;;;;;;;16.37;69.83;99868.63;8237142;28;19926;-76
2022/10/08 09:20:39;;;;;;;;;;;;;;;16.22;69.97;99875.03;8228739;28;19926;-76
2022/10/08 09:24:40;;;;;;;;;;;;;;;16.35;70.19;99883.53;8233293;28;19926;-76
2022/10/08 09:29:02;;;;;;;;;;;;;;;16.58;69.21;99870.78;8255652;28;19925;-76
2022/10/08 09:33:15;;;;;;;;;;;;;;;16.65;69.59;99879.38;8244010;28;19926;-76
2022/10/08 09:37:21;;;;;;;;;;;;;;;16.68;67.49;99883.72;8246115;28;19973;-76
2022/10/08 09:41:27;;;;;;;;;;;;;;;16.76;68.35;99881.81;8235586;28;19941;-76
2022/10/08 09:45:30;;;;;;;;;;;;;;;17.03;67.42;99886.44;8232588;28;19925;-76
2022/10/08 09:49:32;;;;;;;;;;;;;;;17.01;65.81;99893.47;8206926;28;19930;-76
2022/10/08 09:53:45;;;;;;;;;;;;;;;16.98;66.17;99898.81;8205519;28;19926;-76
2022/10/08 09:57:50;;;;;;;;;;;;;;;16.97;66.03;99902.31;8206391;28;20280;-76
2022/10/08 10:01:52;;;;;;;;;;;;;;;17.07;66.52;99903.88;8202618;28;19925;-76
2022/10/08 10:05:54;;;;;;;;;;;;;;;17.13;65.84;99905.47;8244034;28;19934;-76
2022/10/08 10:10:00;;;;;;;;;;;;;;;17.14;65.91;99918.56;8248574;28;19926;-76
2022/10/08 10:14:11;;;;;;;;;;;;;;;17.05;66.53;99924.00;8245939;28;19953;-76
2022/10/08 10:18:15;;;;;;;;;;;;;;;16.77;66.73;99931.63;8217328;28;19954;-75
2022/10/08 10:22:23;;;;;;;;;;;;;;;16.57;67.43;99933.75;8213393;28;19985;-75
2022/10/08 10:26:28;;;;;;;;;;;;;;;16.36;67.51;99939.41;8212296;28;19988;-75
2022/10/08 10:30:33;;;;;;;;;;;;;;;16.14;67.90;99952.03;8216093;28;19930;-76
2022/10/08 10:34:37;;;;;;;;;;;;;;;16.05;69.05;99939.97;8219017;28;20004;-77
2022/10/08 10:38:43;;;;;;;;;;;;;;;16.00;69.18;99953.16;8231936;28;19967;-77
2022/10/08 10:42:49;;;;;;;;;;;;;;;16.05;70.42;99952.22;8216639;28;19957;-77
2022/10/08 10:46:56;;;;;;;;;;;;;;;16.07;69.80;99955.66;8217322;28;20243;-77
2022/10/08 10:51:13;;;;;;;;;;;;;;;16.07;69.96;99953.03;8222289;28;19957;-77
2022/10/08 10:55:53;;;;;;;;;;;;;;;16.01;70.77;99964.50;8241056;28;19926;-76
2022/10/08 11:00:02;;;;;;;;;;;;;;;15.89;71.00;99962.09;8140945;29;19935;-76
2022/10/08 11:04:09;;;;;;;;;;;;;;;15.77;70.17;99968.38;8146040;29;19926;-76
2022/10/08 11:08:29;;;;;;;;;;;;;;;15.72;70.73;99957.13;8146543;29;19934;-76
2022/10/08 11:12:41;;;;;;;;;;;;;;;15.84;71.20;99961.31;8142161;29;20041;-76
2022/10/08 11:16:53;;;;;;;;;;;;;;;15.96;71.78;99959.31;8144684;29;19930;-76
2022/10/08 11:21:03;;;;;;;;;;;;;;;16.00;70.55;99960.16;8136495;29;19985;-77
2022/10/08 11:25:23;;;;;;;;;;;;;;;16.06;70.04;99956.56;8142090;29;20465;-76
2022/10/08 11:29:24;;;;;;;;;;;;;;;16.14;69.76;99960.75;8140292;28;19985;-77
2022/10/08 11:33:26;;;;;;;;;;;;;;;16.26;69.36;99970.16;8227619;28;19941;-76
2022/10/08 11:37:33;;;;;;;;;;;;;;;16.31;68.46;99963.94;8245821;28;19929;-76
2022/10/08 11:41:39;;;;;;;;;;;;;;;16.42;68.36;99970.75;8253028;28;20020;-76
2022/10/08 11:45:43;;;;;;;;;;;;;;;16.39;68.56;99968.19;8252662;28;19934;-76
2022/10/08 11:49:48;;;;;;;;;;;;;;;16.40;68.48;99964.69;8251199;28;19988;-76
2022/10/08 11:54:13;;;;;;;;;;;;;;;16.44;67.90;99961.97;8252348;28;19925;-76
2022/10/08 11:58:22;;;;;;;;;;;;;;;16.82;68.16;99952.50;8244648;28;20479;-76
2022/10/08 12:02:29;;;;;;;;;;;;;;;17.06;66.39;99951.13;8246540;28;19929;-76
2022/10/08 12:06:34;;;;;;;;;;;;;;;17.15;65.19;99945.66;8247902;28;19925;-76
2022/10/08 12:10:37;;;;;;;;;;;;;;;17.17;64.48;99939.47;8250106;28;19961;-76
2022/10/08 12:14:44;;;;;;;;;;;;;;;17.05;65.22;99944.13;8249974;28;20574;-76
2022/10/08 12:18:46;;;;;;;;;;;;;;;17.00;64.45;99935.50;8246804;28;20386;-76
2022/10/08 12:23:04;;;;;;;;;;;;;;;17.03;64.25;99927.56;8253594;28;19933;-76
2022/10/08 12:27:19;;;;;;;;;;;;;;;17.18;64.18;99930.72;8254826;28;20335;-76
2022/10/08 12:31:38;;;;;;;;;;;;;;;17.39;63.48;99924.09;8251758;28;19926;-76
2022/10/08 12:35:57;;;;;;;;;;;;;;;17.27;62.36;99913.03;8203909;28;19926;-76
2022/10/08 12:40:01;;;;;;;;;;;;;;;17.11;62.45;99926.50;8215821;28;19930;-77
2022/10/08 12:44:07;;;;;;;;;;;;;;;17.08;63.57;99921.34;8221949;28;19930;-76
2022/10/08 12:48:38;;;;;;;;;;;;;;;17.05;63.86;99923.13;8213059;28;20688;-76
2022/10/08 12:52:39;;;;;;;;;;;;;;;16.99;64.10;99925.91;8198825;28;19992;-76
2022/10/08 12:56:41;;;;;;;;;;;;;;;16.84;64.07;99933.19;8211247;28;19940;-76
2022/10/08 13:00:43;;;;;;;;;;;;;;;16.71;65.15;99921.25;8197680;28;20012;-76
2022/10/08 13:04:45;;;;;;;;;;;;;;;16.57;65.49;99910.16;8243840;28;19925;-76
2022/10/08 13:08:47;;;;;;;;;;;;;;;16.65;65.55;99916.09;8253153;28;19926;-77
2022/10/08 13:12:59;;;;;;;;;;;;;;;16.82;64.72;99910.53;8256402;28;19991;-76
2022/10/08 13:17:00;;;;;;;;;;;;;;;16.88;63.69;99900.78;8234495;28;19977;-77
2022/10/08 13:21:06;;;;;;;;;;;;;;;16.72;63.16;99903.78;8224244;28;20012;-76
2022/10/08 13:25:26;;;;;;;;;;;;;;;16.73;62.21;99911.59;8227594;28;20118;-77
2022/10/08 13:29:35;;;;;;;;;;;;;;;16.88;62.34;99905.16;8227712;28;19930;-76
2022/10/08 13:33:37;;;;;;;;;;;;;;;16.96;61.13;99899.75;8246400;28;19936;-77
2022/10/08 13:37:39;;;;;;;;;;;;;;;17.08;60.15;99904.72;8238250;28;19930;-77
2022/10/08 13:41:47;;;;;;;;;;;;;;;17.17;60.25;99913.22;8260876;28;19991;-76
2022/10/08 13:45:52;;;;;;;;;;;;;;;17.31;60.57;99910.28;8247690;28;19929;-77
2022/10/08 13:49:59;;;;;;;;;;;;;;;17.37;59.29;99907.50;8257861;28;19984;-76
2022/10/08 13:54:00;;;;;;;;;;;;;;;17.41;59.41;99908.28;8257432;28;19925;-77
2022/10/08 13:58:03;;;;;;;;;;;;;;;17.39;59.02;99907.47;8251329;28;19933;-77
2022/10/08 14:02:05;;;;;;;;;;;;;;;17.44;58.81;99906.50;8232294;28;19980;-77
2022/10/08 14:06:06;;;;;;;;;;;;;;;17.48;58.51;99904.66;8220992;28;19926;-77
2022/10/08 14:10:11;;;;;;;;;;;;;;;17.50;59.93;99911.59;8221091;28;19933;-77
2022/10/08 14:14:13;;;;;;;;;;;;;;;17.49;57.80;99915.09;8232228;28;19926;-76
2022/10/08 14:18:15;;;;;;;;;;;;;;;17.53;59.16;99913.25;8207289;28;19973;-77
2022/10/08 14:22:16;;;;;;;;;;;;;;;17.48;54.67;99910.75;8208147;28;19944;-77
2022/10/08 14:26:17;;;;;;;;;;;;;;;17.49;56.01;99911.63;8206093;28;19988;-77
2022/10/08 14:30:19;;;;;;;;;;;;;;;17.52;55.41;99914.16;8198405;28;20770;-77
2022/10/08 14:34:21;;;;;;;;;;;;;;;17.53;55.75;99905.38;8206863;28;19933;-77
2022/10/08 14:38:23;;;;;;;;;;;;;;;17.55;54.58;99911.47;8207314;28;19930;-77
2022/10/08 14:42:24;;;;;;;;;;;;;;;17.60;55.32;99908.75;8215103;28;20319;-76
2022/10/08 14:46:26;;;;;;;;;;;;;;;17.67;55.50;99892.78;8213039;28;19926;-77
2022/10/08 14:50:27;;;;;;;;;;;;;;;17.72;55.36;99906.69;8243409;28;19933;-76
2022/10/08 14:54:28;;;;;;;;;;;;;;;17.79;56.67;99897.78;8239955;28;20615;-76
2022/10/08 14:58:30;;;;;;;;;;;;;;;17.81;56.03;99901.22;8240608;28;19926;-77
2022/10/08 15:02:33;;;;;;;;;;;;;;;17.77;57.07;99907.47;8241903;28;20004;-76
2022/10/08 15:06:34;;;;;;;;;;;;;;;17.80;57.65;99907.38;8249517;28;19979;-77
2022/10/08 15:10:36;;;;;;;;;;;;;;;17.80;55.47;99911.75;8265657;28;19933;-76
2022/10/08 15:14:37;;;;;;;;;;;;;;;17.86;54.85;99900.22;8259730;28;19937;-76
2022/10/08 15:18:39;;;;;;;;;;;;;;;17.91;54.90;99901.81;8249008;28;19929;-76
2022/10/08 15:22:40;;;;;;;;;;;;;;;18.02;54.65;99899.78;8258641;28;19965;-77
2022/10/08 15:26:42;;;;;;;;;;;;;;;18.15;53.85;99912.63;8267671;28;19930;-77
2022/10/08 15:30:44;;;;;;;;;;;;;;;18.28;53.19;99903.47;8252933;28;19976;-76
2022/10/08 15:34:45;;;;;;;;;;;;;;;18.50;52.19;99901.97;8239323;28;20028;-76
2022/10/08 15:38:52;;;;;;;;;;;;;;;18.81;51.13;99903.72;8257858;28;20409;-76
2022/10/08 15:42:54;;;;;;;;;;;;;;;18.35;50.65;99902.41;8263714;28;19922;-76
2022/10/08 15:47:04;;;;;;;;;;;;;;;18.11;52.35;99907.41;8236113;28;19926;-76
2022/10/08 15:51:06;;;;;;;;;;;;;;;18.29;52.86;99910.44;8207176;28;19988;-76
2022/10/08 15:55:07;;;;;;;;;;;;;;;18.81;52.17;99909.00;8209705;28;19966;-76
2022/10/08 15:59:09;;;;;;;;;;;;;;;18.21;52.75;99915.06;8209392;28;20411;-77
2022/10/08 16:03:10;;;;;;;;;;;;;;;17.43;55.20;99919.66;8198325;28;19925;-77
2022/10/08 16:07:11;;;;;;;;;;;;;;;16.73;59.01;99929.09;8206944;28;19941;-76
2022/10/08 16:11:15;;;;;;;;;;;;;;;16.12;61.69;99928.47;8224829;28;19926;-76
2022/10/08 16:15:17;;;;;;;;;;;;;;;15.64;65.93;99927.59;8218255;28;20503;-76
2022/10/08 16:19:19;;;;;;;;;;;;;;;15.19;66.90;99930.00;8242454;28;19977;-75
2022/10/08 16:23:21;;;;;;;;;;;;;;;14.77;68.39;99934.06;8221650;28;19981;-76
2022/10/08 16:27:22;;;;;;;;;;;;;;;14.41;69.36;99940.56;8239697;28;20437;-76
2022/10/08 16:31:24;;;;;;;;;;;;;;;14.13;70.37;99939.97;8238459;28;19926;-76
2022/10/08 16:35:25;;;;;;;;;;;;;;;13.87;71.47;99954.16;8246679;28;20013;-76
2022/10/08 16:39:27;;;;;;;;;;;;;;;13.63;72.55;99946.50;8255327;28;19930;-76
2022/10/08 16:43:28;;;;;;;;;;;;;;;13.43;73.74;99951.00;8240140;28;20040;-76
2022/10/08 16:47:29;;;;;;;;;;;;;;;13.21;74.81;99964.19;8242125;28;20290;-76
2022/10/08 16:51:35;;;;;;;;;;;;;;;12.98;75.49;99972.13;8238554;28;20331;-76
2022/10/08 16:55:37;;;;;;;;;;;;;;;12.83;75.58;99977.41;8255570;28;19926;-76
2022/10/08 16:59:38;;;;;;;;;;;;;;;12.58;75.91;99980.97;8238504;28;19926;-76
2022/10/08 17:03:40;;;;;;;;;;;;;;;12.31;76.99;99987.97;8208331;28;19936;-76
2022/10/08 17:07:41;;;;;;;;;;;;;;;12.17;78.01;99994.91;8209311;28;19929;-76
2022/10/08 17:11:42;;;;;;;;;;;;;;;11.96;77.78;100000.16;8195671;28;19933;-76
2022/10/08 17:15:43;;;;;;;;;;;;;;;11.80;79.25;100002.75;8200774;28;19929;-76
2022/10/08 17:19:45;;;;;;;;;;;;;;;11.68;79.84;100010.53;8240449;28;19925;-76
2022/10/08 17:23:46;;;;;;;;;;;;;;;11.49;80.04;100014.84;8240211;28;20307;-74
2022/10/08 17:27:48;;;;;;;;;;;;;;;11.35;80.48;100026.06;8244242;28;19936;-75
2022/10/08 17:31:49;;;;;;;;;;;;;;;11.27;81.41;100027.75;8234346;28;19926;-74
2022/10/08 17:36:07;;;;;;;;;;;;;;;11.14;82.06;100029.47;8231458;28;19926;-74
2022/10/08 17:40:09;;;;;;;;;;;;;;;11.00;82.30;100038.94;8245917;28;20016;-74
2022/10/08 17:44:10;;;;;;;;;;;;;;;10.84;82.31;100051.84;8245743;28;19929;-74
2022/10/08 17:48:12;;;;;;;;;;;;;;;10.74;83.26;100046.59;8216390;28;19922;-74
2022/10/08 17:52:13;;;;;;;;;;;;;;;10.60;83.14;100054.31;8204575;28;20427;-74
2022/10/08 17:56:15;;;;;;;;;;;;;;;10.50;83.25;100057.72;8201222;28;19930;-74
2022/10/08 18:00:17;;;;;;;;;;;;;;;10.39;84.35;100059.34;8199865;28;19930;-74
2022/10/08 18:04:18;;;;;;;;;;;;;;;10.27;84.02;100055.84;8244716;28;19960;-74
2022/10/08 18:08:19;;;;;;;;;;;;;;;10.21;84.37;100062.69;8245396;28;20358;-74
2022/10/08 18:12:21;;;;;;;;;;;;;;;10.16;85.19;100069.53;8238908;28;19961;-74
2022/10/08 18:16:24;;;;;;;;;;;;;;;10.04;84.74;100070.28;8240144;28;19930;-74
2022/10/08 18:20:25;;;;;;;;;;;;;;;9.94;85.39;100073.69;8197413;28;19926;-73
2022/10/08 18:24:26;;;;;;;;;;;;;;;9.90;86.00;100079.69;8209242;28;19930;-73
2022/10/08 18:28:28;;;;;;;;;;;;;;;9.77;85.44;100086.50;8207610;28;19926;-73
2022/10/08 18:32:29;;;;;;;;;;;;;;;9.69;86.53;100085.53;8225796;28;20314;-74
2022/10/08 18:36:32;;;;;;;;;;;;;;;9.62;86.43;100083.72;8247897;28;19926;-73
2022/10/08 18:40:34;;;;;;;;;;;;;;;9.54;87.03;100091.44;8246149;28;19988;-74
2022/10/08 18:44:35;;;;;;;;;;;;;;;9.48;87.58;100095.66;8242392;28;19926;-73
2022/10/08 18:48:37;;;;;;;;;;;;;;;9.35;88.31;100098.13;8240711;28;19926;-74
2022/10/08 18:52:38;;;;;;;;;;;;;;;9.30;88.35;100107.56;8254063;28;19934;-74
2022/10/08 18:56:40;;;;;;;;;;;;;;;9.29;88.93;100111.00;8247245;28;20318;-73
2022/10/08 19:00:43;;;;;;;;;;;;;;;9.22;88.63;100109.19;8253859;28;19929;-73
2022/10/08 19:04:45;;;;;;;;;;;;;;;9.16;88.59;100113.44;8252425;28;19925;-73
2022/10/08 19:08:47;;;;;;;;;;;;;;;9.06;88.44;100121.09;8253007;28;19925;-74
2022/10/08 19:12:48;;;;;;;;;;;;;;;9.02;88.97;100115.84;8245654;28;19929;-73
2022/10/08 19:16:51;;;;;;;;;;;;;;;8.95;89.79;100124.38;8211408;28;19930;-74
2022/10/08 19:20:53;;;;;;;;;;;;;;;8.89;89.92;100119.97;8221254;28;19989;-74
2022/10/08 19:24:55;;;;;;;;;;;;;;;8.82;90.07;100125.94;8222231;28;20130;-74
2022/10/08 19:28:59;;;;;;;;;;;;;;;8.77;90.25;100124.97;8213164;28;19926;-74
2022/10/08 19:33:02;;;;;;;;;;;;;;;8.74;90.50;100128.38;8178008;28;20721;-74
2022/10/08 19:37:03;;;;;;;;;;;;;;;8.67;91.05;100136.06;8199169;28;19925;-74
2022/10/08 19:41:05;;;;;;;;;;;;;;;8.60;91.16;100142.84;8213361;28;19926;-74
2022/10/08 19:45:09;;;;;;;;;;;;;;;8.54;90.36;100131.53;8212617;28;19936;-74
2022/10/08 19:49:11;;;;;;;;;;;;;;;8.45;90.56;100143.50;8194954;28;20360;-74
2022/10/08 19:53:13;;;;;;;;;;;;;;;8.34;90.66;100150.19;8221081;28;19925;-74
2022/10/08 19:57:15;;;;;;;;;;;;;;;8.31;90.61;100144.06;8206283;28;19926;-74
2022/10/08 20:01:17;;;;;;;;;;;;;;;8.28;91.42;100149.19;8193092;28;19934;-74
2022/10/08 20:05:19;;;;;;;;;;;;;;;8.23;90.95;100150.81;8202827;28;19926;-74
2022/10/08 20:09:20;;;;;;;;;;;;;;;8.11;90.89;100154.94;8197864;28;19935;-73
2022/10/08 20:13:22;;;;;;;;;;;;;;;8.03;91.20;100158.22;8208705;28;20655;-73
2022/10/08 20:17:23;;;;;;;;;;;;;;;8.00;91.43;100164.22;8245362;28;20397;-74
2022/10/08 20:21:25;;;;;;;;;;;;;;;7.98;91.72;100167.63;8245057;28;19926;-75
2022/10/08 20:25:27;;;;;;;;;;;;;;;7.94;92.11;100166.69;8242326;28;19945;-75
2022/10/08 20:29:28;;;;;;;;;;;;;;;7.91;92.01;100176.13;8249838;28;19929;-76
2022/10/08 20:33:31;;;;;;;;;;;;;;;7.83;91.96;100175.97;8234215;28;19937;-76
2022/10/08 20:37:33;;;;;;;;;;;;;;;7.77;92.15;100175.84;8246982;28;19925;-76
2022/10/08 20:41:35;;;;;;;;;;;;;;;7.70;92.07;100177.44;8244191;28;19929;-76
2022/10/08 20:45:36;;;;;;;;;;;;;;;7.67;92.15;100182.53;8239151;28;19936;-75
2022/10/08 20:49:37;;;;;;;;;;;;;;;7.60;91.90;100182.41;8205025;28;20253;-75
2022/10/08 20:53:39;;;;;;;;;;;;;;;7.53;92.25;100177.09;8210969;28;19997;-75
2022/10/08 20:57:40;;;;;;;;;;;;;;;7.45;91.98;100182.97;8211084;28;20020;-75
2022/10/08 21:01:43;;;;;;;;;;;;;;;7.42;92.38;100180.31;8213617;28;19925;-76
2022/10/08 21:05:44;;;;;;;;;;;;;;;7.33;92.36;100182.69;8255261;28;19960;-76
2022/10/08 21:09:47;;;;;;;;;;;;;;;7.28;92.63;100186.06;8242098;28;19926;-76
2022/10/08 21:13:49;;;;;;;;;;;;;;;7.24;92.43;100185.97;8236833;28;19922;-76
2022/10/08 21:17:50;;;;;;;;;;;;;;;7.20;92.30;100190.19;8221389;28;19926;-76
2022/10/08 21:21:51;;;;;;;;;;;;;;;7.13;92.19;100183.13;8212719;28;19984;-76
2022/10/08 21:25:53;;;;;;;;;;;;;;;7.09;92.26;100189.06;8212007;28;19949;-76
2022/10/08 21:29:54;;;;;;;;;;;;;;;6.97;91.97;100184.50;8203873;28;19926;-76
2022/10/08 21:33:56;;;;;;;;;;;;;;;6.90;91.89;100189.50;8222847;28;19926;-76
2022/10/08 21:37:57;;;;;;;;;;;;;;;6.85;92.66;100189.41;8214113;28;20279;-75
2022/10/08 21:41:59;;;;;;;;;;;;;;;6.87;93.10;100192.00;8213895;28;19932;-76
2022/10/08 21:46:00;;;;;;;;;;;;;;;6.82;92.58;100193.59;8215264;28;19985;-76
2022/10/08 21:50:02;;;;;;;;;;;;;;;6.73;92.24;100185.66;8203820;28;19931;-76
2022/10/08 21:54:04;;;;;;;;;;;;;;;6.72;92.21;100204.53;8211749;28;19956;-76
2022/10/08 21:58:05;;;;;;;;;;;;;;;6.64;92.16;100197.50;8211592;28;19977;-76
2022/10/08 22:02:06;;;;;;;;;;;;;;;6.62;92.23;100193.13;8207097;28;19987;-76
2022/10/08 22:06:08;;;;;;;;;;;;;;;6.57;92.14;100193.00;8238843;28;19926;-76
2022/10/08 22:10:10;;;;;;;;;;;;;;;6.50;92.28;100185.09;8235978;28;19925;-76
2022/10/08 22:14:11;;;;;;;;;;;;;;;6.48;92.56;100186.78;8238021;28;20032;-76
2022/10/08 22:18:12;;;;;;;;;;;;;;;6.41;92.43;100185.72;8216637;28;19926;-76
2022/10/08 22:22:14;;;;;;;;;;;;;;;6.34;92.26;100184.72;8211395;28;19926;-75
2022/10/08 22:26:20;;;;;;;;;;;;;;;6.30;91.84;100182.03;8210578;28;19922;-76
2022/10/08 22:30:21;;;;;;;;;;;;;;;6.21;91.91;100176.63;8213544;28;20470;-75
2022/10/08 22:34:22;;;;;;;;;;;;;;;6.14;91.82;100178.19;8207053;28;19937;-76
2022/10/08 22:38:24;;;;;;;;;;;;;;;6.11;92.42;100175.53;8213467;28;19926;-74
2022/10/08 22:42:25;;;;;;;;;;;;;;;6.07;92.05;100165.94;8211030;28;20000;-74
2022/10/08 22:46:28;;;;;;;;;;;;;;;6.05;92.59;100176.22;8205090;28;21002;-75
2022/10/08 22:50:29;;;;;;;;;;;;;;;6.02;92.55;100173.56;8217844;28;20501;-75
2022/10/08 22:54:31;;;;;;;;;;;;;;;6.02;92.63;100180.41;8217161;28;20386;-75
2022/10/08 22:58:33;;;;;;;;;;;;;;;5.94;92.16;100171.63;8215110;28;19997;-75
2022/10/08 23:02:34;;;;;;;;;;;;;;;5.90;92.45;100174.94;8212572;28;20516;-75
2022/10/08 23:06:36;;;;;;;;;;;;;;;5.87;92.45;100180.84;8217547;28;19926;-75
2022/10/08 23:10:38;;;;;;;;;;;;;;;5.83;92.38;100168.72;8208568;28;19932;-75
2022/10/08 23:14:39;;;;;;;;;;;;;;;5.77;92.10;100176.28;8194138;28;19973;-75
2022/10/08 23:18:42;;;;;;;;;;;;;;;5.71;92.64;100176.09;8161896;28;19930;-75
2022/10/08 23:22:43;;;;;;;;;;;;;;;5.65;92.13;100173.38;8162172;29;19931;-75
2022/10/08 23:26:45;;;;;;;;;;;;;;;5.60;92.47;100162.94;8166906;29;19926;-75
2022/10/08 23:30:46;;;;;;;;;;;;;;;5.60;92.74;100162.94;8180898;28;20498;-75
2022/10/08 23:34:47;;;;;;;;;;;;;;;5.55;92.74;100161.03;8592210;23;20030;-75
2022/10/08 23:38:49;;;;;;;;;;;;;;;5.50;93.03;100160.06;8160800;29;19997;-75
2022/10/08 23:42:51;;;;;;;;;;;;;;;5.39;92.84;100162.34;8161951;29;19926;-75
2022/10/08 23:46:52;;;;;;;;;;;;;;;5.38;93.02;100161.44;8169590;28;19930;-75
2022/10/08 23:50:53;;;;;;;;;;;;;;;5.33;93.00;100162.16;8183203;29;19926;-75
2022/10/08 23:54:55;;;;;;;;;;;;;;;5.28;92.31;100153.44;8193570;28;20086;-75
2022/10/08 23:58:56;;;;;;;;;;;;;;;5.23;92.48;100149.84;8186093;28;20323;-75
